createdAt,value
2023-04-11T00:01:51.770Z,4.63
2023-04-11T00:04:20.965Z,3.73
2023-04-11T00:06:48.786Z,3.67
2023-04-11T00:09:16.938Z,4.53
2023-04-11T00:11:44.269Z,3.87
2023-04-11T00:14:12.749Z,4.53
2023-04-11T00:16:41.573Z,4.10
2023-04-11T00:19:09.624Z,5.13
2023-04-11T00:21:40.182Z,4.77
2023-04-11T00:24:08.352Z,4.50
2023-04-11T00:26:35.722Z,4.10
2023-04-11T00:29:02.681Z,4.43
2023-04-11T00:31:29.643Z,4.03
2023-04-11T00:33:56.695Z,4.60
2023-04-11T00:36:23.865Z,4.20
2023-04-11T00:38:50.906Z,5.60
2023-04-11T00:41:18.044Z,4.03
2023-04-11T00:43:44.935Z,4.50
2023-04-11T00:46:12.256Z,4.33
2023-04-11T00:48:39.363Z,5.07
2023-04-11T00:51:06.554Z,4.87
2023-04-11T00:53:34.847Z,4.63
2023-04-11T00:56:02.072Z,4.07
2023-04-11T00:58:29.312Z,4.77
2023-04-11T01:00:56.305Z,4.60
2023-04-11T01:03:23.981Z,4.70
2023-04-11T01:05:54.782Z,4.30
2023-04-11T01:08:22.562Z,5.03
2023-04-11T01:10:49.859Z,5.75
2023-04-11T01:13:17.301Z,5.40
2023-04-11T01:15:44.342Z,4.50
2023-04-11T01:18:11.842Z,4.97
2023-04-11T01:20:38.815Z,5.47
2023-04-11T01:23:07.466Z,4.63
2023-04-11T01:25:34.644Z,5.47
2023-04-11T01:28:01.800Z,5.33
2023-04-11T01:30:28.992Z,4.80
2023-04-11T01:32:56.054Z,5.03
2023-04-11T01:35:23.213Z,5.10
2023-04-11T01:37:50.323Z,5.23
2023-04-11T01:40:19.073Z,5.30
2023-04-11T01:42:46.951Z,4.80
2023-04-11T01:45:14.514Z,4.90
2023-04-11T01:47:41.739Z,5.37
2023-04-11T01:50:09.230Z,5.87
2023-04-11T01:52:36.542Z,5.27
2023-04-11T01:55:04.063Z,5.00
2023-04-11T01:57:31.266Z,5.77
2023-04-11T01:59:58.148Z,5.37
2023-04-11T02:02:26.256Z,5.47
2023-04-11T02:04:53.336Z,4.87
2023-04-11T02:07:21.061Z,5.30
2023-04-11T02:09:48.514Z,5.03
2023-04-11T02:12:15.530Z,5.37
2023-04-11T02:14:44.422Z,5.77
2023-04-11T02:17:12.320Z,5.30
2023-04-11T02:19:45.635Z,5.23
2023-04-11T02:22:13.273Z,5.77
2023-04-11T02:24:40.588Z,5.63
2023-04-11T02:27:08.065Z,5.37
2023-04-11T02:29:35.213Z,5.40
2023-04-11T02:32:02.331Z,4.83
2023-04-11T02:34:29.405Z,6.07
2023-04-11T02:36:56.425Z,5.43
2023-04-11T02:39:24.252Z,5.57
2023-04-11T02:41:51.328Z,6.70
2023-04-11T02:44:19.531Z,5.50
2023-04-11T02:46:46.535Z,5.50
2023-04-11T02:49:13.686Z,5.20
2023-04-11T02:51:41.123Z,5.43
2023-04-11T02:54:08.390Z,5.53
2023-04-11T02:56:39.008Z,6.13
2023-04-11T02:59:07.122Z,5.33
2023-04-11T03:01:34.384Z,5.37
2023-04-11T03:04:01.411Z,5.77
2023-04-11T03:06:29.425Z,4.97
2023-04-11T03:08:56.668Z,6.13
2023-04-11T03:11:23.779Z,5.77
2023-04-11T03:13:51.110Z,5.30
2023-04-11T03:16:18.049Z,5.73
2023-04-11T03:18:44.946Z,5.73
2023-04-11T03:21:12.511Z,5.87
2023-04-11T03:23:39.728Z,5.43
2023-04-11T03:26:07.449Z,5.60
2023-04-11T03:28:34.610Z,6.10
2023-04-11T03:31:01.611Z,6.03
2023-04-11T03:33:28.712Z,5.70
2023-04-11T03:35:55.910Z,5.53
2023-04-11T03:38:22.883Z,6.50
2023-04-11T03:40:49.805Z,6.10
2023-04-11T03:43:17.452Z,6.13
2023-04-11T03:45:44.358Z,6.17
2023-04-11T03:48:11.878Z,6.87
2023-04-11T03:50:39.037Z,6.30
2023-04-11T03:53:05.904Z,6.10
2023-04-11T03:55:33.005Z,6.27
2023-04-11T03:58:00.068Z,6.10
2023-04-11T04:00:27.778Z,6.47
2023-04-11T04:02:54.826Z,6.50
2023-04-11T04:05:22.084Z,6.17
2023-04-11T04:07:49.025Z,6.13
2023-04-11T04:10:16.004Z,6.23
2023-04-11T04:12:43.866Z,5.67
2023-04-11T04:15:11.543Z,6.73
2023-04-11T04:17:38.650Z,6.90
2023-04-11T04:20:07.212Z,6.03
2023-04-11T04:22:34.357Z,7.10
2023-04-11T04:25:02.046Z,6.10
2023-04-11T04:27:29.246Z,5.43
2023-04-11T04:30:03.041Z,5.70
2023-04-11T04:32:31.227Z,7.17
2023-04-11T04:34:58.959Z,6.47
2023-04-11T04:37:27.314Z,5.80
2023-04-11T04:39:56.674Z,6.17
2023-04-11T04:42:25.882Z,7.40
2023-04-11T04:44:54.192Z,6.30
2023-04-11T04:47:25.914Z,5.93
2023-04-11T04:49:59.258Z,5.93
2023-04-11T04:52:28.357Z,6.33
2023-04-11T04:54:59.900Z,6.53
2023-04-11T04:57:28.574Z,6.93
2023-04-11T04:59:56.437Z,6.67
2023-04-11T05:02:25.554Z,6.03
2023-04-11T05:04:58.208Z,7.33
2023-04-11T05:07:26.524Z,6.50
2023-04-11T05:09:53.467Z,6.60
2023-04-11T05:12:26.412Z,6.30
2023-04-11T05:14:53.405Z,6.70
2023-04-11T05:17:20.798Z,5.40
2023-04-11T05:19:48.778Z,5.97
2023-04-11T05:22:15.650Z,6.73
2023-04-11T05:24:42.597Z,5.90
2023-04-11T05:27:09.575Z,7.00
2023-04-11T05:29:36.532Z,6.43
2023-04-11T05:32:03.604Z,5.60
2023-04-11T05:34:33.451Z,6.47
2023-04-11T05:37:01.404Z,5.30
2023-04-11T05:39:28.312Z,5.37
2023-04-11T05:41:55.274Z,6.07
2023-04-11T05:44:22.201Z,5.90
2023-04-11T05:46:49.140Z,6.10
2023-04-11T05:49:16.210Z,5.00
2023-04-11T05:51:43.101Z,6.07
2023-04-11T05:54:10.178Z,6.07
2023-04-11T05:56:39.940Z,4.97
2023-04-11T05:59:06.949Z,6.13
2023-04-11T06:01:34.832Z,6.50
2023-04-11T06:04:02.481Z,5.30
2023-04-11T06:06:29.800Z,6.13
2023-04-11T06:08:58.084Z,6.97
2023-04-11T06:11:27.292Z,5.43
2023-04-11T06:13:54.305Z,6.70
2023-04-11T06:16:21.524Z,6.70
2023-04-11T06:18:48.580Z,5.53
2023-04-11T06:21:15.468Z,5.90
2023-04-11T06:23:42.542Z,4.60
2023-04-11T06:26:11.306Z,6.33
2023-04-11T06:28:38.352Z,6.53
2023-04-11T06:31:05.629Z,6.47
2023-04-11T06:33:35.176Z,5.37
2023-04-11T06:36:03.617Z,5.87
2023-04-11T06:38:32.306Z,4.57
2023-04-11T06:40:59.320Z,8.60
2023-04-11T06:43:26.175Z,5.63
2023-04-11T06:45:53.090Z,6.43
2023-04-11T06:48:21.111Z,4.70
2023-04-11T06:50:48.719Z,5.80
2023-04-11T06:53:15.939Z,4.63
2023-04-11T06:55:42.923Z,5.70
2023-04-11T06:58:09.955Z,4.90
2023-04-11T07:00:36.944Z,3.83
2023-04-11T07:03:08.309Z,4.63
2023-04-11T07:05:38.301Z,4.30
2023-04-11T07:08:06.448Z,4.70
2023-04-11T07:10:33.437Z,4.73
2023-04-11T07:13:00.388Z,4.43
2023-04-11T07:15:27.852Z,6.63
2023-04-11T07:20:24.068Z,6.68
2023-04-11T07:22:51.026Z,4.73
2023-04-11T07:25:18.700Z,5.22
2023-04-11T07:27:46.570Z,4.60
2023-04-11T07:30:14.028Z,3.30
2023-04-11T07:32:41.043Z,3.37
2023-04-11T07:35:08.302Z,5.40
2023-04-11T07:37:35.654Z,2.47
2023-04-11T07:40:06.555Z,3.77
2023-04-11T07:42:33.568Z,4.57
2023-04-11T07:45:00.437Z,3.80
2023-04-11T07:47:27.430Z,4.20
2023-04-11T07:49:54.351Z,3.40
2023-04-11T07:52:21.231Z,3.03
2023-04-11T07:54:48.175Z,4.50
2023-04-11T07:57:15.446Z,4.10
2023-04-11T07:59:42.825Z,3.10
2023-04-11T08:02:09.953Z,3.23
2023-04-11T08:04:37.830Z,3.33
2023-04-11T08:07:04.964Z,3.87
2023-04-11T08:09:32.564Z,3.53
2023-04-11T08:11:59.603Z,5.17
2023-04-11T08:14:26.414Z,3.73
2023-04-11T08:16:54.091Z,5.13
2023-04-11T08:19:21.320Z,4.17
2023-04-11T08:21:48.444Z,4.97
2023-04-11T08:24:15.451Z,5.30
2023-04-11T08:26:42.388Z,3.50
2023-04-11T08:29:12.606Z,5.63
2023-04-11T08:31:46.057Z,3.40
2023-04-11T08:34:13.353Z,6.37
2023-04-11T08:36:41.620Z,3.00
2023-04-11T08:39:08.929Z,3.00
2023-04-11T08:41:37.715Z,3.57
2023-04-11T08:44:04.632Z,4.47
2023-04-11T08:46:33.126Z,3.97
2023-04-11T08:49:01.081Z,4.23
2023-04-11T08:51:28.704Z,4.53
2023-04-11T08:53:59.784Z,4.37
2023-04-11T08:56:26.923Z,4.93
2023-04-11T08:58:55.811Z,3.07
2023-04-11T09:01:34.230Z,3.33
2023-04-11T09:04:02.760Z,3.20
2023-04-11T09:06:32.844Z,4.47
2023-04-11T09:09:01.187Z,4.83
2023-04-11T09:11:28.236Z,3.57
2023-04-11T09:14:09.059Z,2.67
2023-04-11T09:16:36.528Z,2.83
2023-04-11T09:19:03.912Z,3.10
2023-04-11T09:21:31.397Z,4.20
2023-04-11T09:24:17.841Z,3.60
2023-04-11T09:26:44.777Z,4.00
2023-04-11T09:29:11.704Z,3.23
2023-04-11T09:31:44.356Z,3.90
2023-04-11T09:34:12.815Z,3.43
2023-04-11T09:36:40.430Z,3.60
2023-04-11T09:39:20.547Z,3.23
2023-04-11T09:41:47.620Z,3.90
2023-04-11T09:44:14.522Z,3.50
2023-04-11T09:47:07.947Z,2.83
2023-04-11T09:49:36.167Z,3.87
2023-04-11T09:52:03.896Z,3.53
2023-04-11T09:54:32.413Z,2.60
2023-04-11T09:57:00.287Z,3.13
2023-04-11T09:59:27.916Z,5.10
2023-04-11T10:01:56.162Z,4.87
2023-04-11T10:04:23.360Z,5.60
2023-04-11T10:07:12.716Z,2.97
2023-04-11T10:09:45.830Z,3.07
2023-04-11T10:12:12.780Z,5.53
2023-04-11T10:14:39.887Z,3.67
2023-04-11T10:17:23.976Z,4.73
2023-04-11T10:20:00.536Z,4.27
2023-04-11T10:22:43.501Z,2.57
2023-04-11T10:25:18.024Z,2.67
2023-04-11T10:27:54.797Z,3.07
2023-04-11T10:30:40.036Z,3.37
2023-04-11T10:33:16.002Z,3.23
2023-04-11T10:36:03.497Z,3.93
2023-04-11T10:38:49.020Z,4.43
2023-04-11T10:41:33.438Z,3.77
2023-04-11T10:44:29.693Z,5.80
2023-04-11T10:46:56.721Z,2.90
2023-04-11T10:49:38.370Z,3.97
2023-04-11T10:52:23.702Z,2.90
2023-04-11T10:54:52.607Z,3.07
2023-04-11T10:57:20.950Z,3.27
2023-04-11T10:59:50.672Z,5.17
2023-04-11T11:02:20.053Z,4.50
2023-04-11T11:04:48.716Z,2.97
2023-04-11T11:07:17.184Z,4.40
2023-04-11T11:09:51.516Z,3.10
2023-04-11T11:12:18.587Z,3.07
2023-04-11T11:14:47.534Z,2.50
2023-04-11T11:17:16.316Z,2.87
2023-04-11T11:19:47.761Z,2.23
2023-04-11T11:22:19.206Z,3.03
2023-04-11T11:24:46.117Z,3.10
2023-04-11T11:27:25.410Z,2.27
2023-04-11T11:29:53.024Z,3.93
2023-04-11T11:35:13.813Z,3.20
2023-04-11T11:37:41.932Z,3.90
2023-04-11T11:40:13.257Z,5.30
2023-04-11T11:42:43.045Z,3.90
2023-04-11T11:45:21.924Z,2.03
2023-04-11T11:47:50.338Z,2.73
2023-04-11T11:50:32.860Z,3.00
2023-04-11T11:53:13.939Z,2.67
2023-04-11T11:55:41.645Z,2.67
2023-04-11T11:58:08.845Z,2.80
2023-04-11T12:00:40.674Z,3.50
2023-04-11T12:03:11.898Z,2.40
2023-04-11T12:05:39.146Z,4.37
2023-04-11T12:08:07.522Z,3.60
2023-04-11T12:10:41.438Z,4.33
2023-04-11T12:13:18.003Z,2.37
2023-04-11T12:15:50.845Z,2.47
2023-04-11T12:18:21.629Z,2.63
2023-04-11T12:20:51.550Z,3.43
2023-04-11T12:23:18.845Z,4.13
2023-04-11T12:25:46.873Z,3.73
2023-04-11T12:28:14.074Z,5.50
2023-04-11T12:30:41.186Z,3.67
2023-04-11T12:33:08.225Z,2.63
2023-04-11T12:35:35.217Z,3.33
2023-04-11T12:38:05.070Z,2.70
2023-04-11T12:40:32.181Z,3.10
2023-04-11T12:42:59.215Z,3.63
2023-04-11T12:45:26.653Z,3.83
2023-04-11T12:47:54.286Z,4.60
2023-04-11T12:50:23.907Z,4.93
2023-04-11T12:52:51.505Z,3.53
2023-04-11T12:55:18.706Z,3.70
2023-04-11T12:57:45.726Z,5.03
2023-04-11T13:00:13.528Z,3.90
2023-04-11T13:02:44.533Z,3.90
2023-04-11T13:05:15.357Z,4.00
2023-04-11T13:07:45.049Z,4.43
2023-04-11T13:10:14.024Z,4.80
2023-04-11T13:12:44.533Z,4.13
2023-04-11T13:15:13.900Z,4.03
2023-04-11T13:17:40.919Z,6.13
2023-04-11T13:20:13.009Z,4.40
2023-04-11T13:22:41.551Z,4.20
2023-04-11T13:25:09.684Z,5.50
2023-04-11T13:27:37.421Z,5.77
2023-04-11T13:30:05.137Z,4.07
2023-04-11T13:32:32.424Z,4.50
2023-04-11T13:34:59.613Z,5.37
2023-04-11T13:37:26.583Z,5.23
2023-04-11T13:39:53.555Z,5.13
2023-04-11T13:42:21.877Z,4.27
2023-04-11T13:44:48.869Z,4.50
2023-04-11T13:47:15.767Z,4.37
2023-04-11T13:49:42.685Z,4.80
2023-04-11T13:52:09.728Z,5.90
2023-04-11T13:54:38.192Z,4.90
2023-04-11T13:57:07.789Z,6.03
2023-04-11T13:59:35.032Z,5.17
2023-04-11T14:02:02.699Z,4.60
2023-04-11T14:04:29.741Z,6.37
2023-04-11T14:06:57.257Z,4.87
2023-04-11T14:09:24.276Z,4.90
2023-04-11T14:11:51.355Z,4.83
2023-04-11T14:14:18.405Z,6.13
2023-04-11T14:16:45.502Z,4.43
2023-04-11T14:19:12.433Z,5.53
2023-04-11T14:21:39.784Z,5.20
2023-04-11T14:24:10.074Z,5.43
2023-04-11T14:26:37.356Z,5.60
2023-04-11T14:29:04.890Z,4.43
2023-04-11T14:31:31.994Z,3.80
2023-04-11T14:33:59.263Z,5.77
2023-04-11T14:36:27.749Z,6.73
2023-04-11T14:38:54.840Z,6.20
2023-04-11T14:41:21.858Z,6.67
2023-04-11T14:43:48.871Z,5.20
2023-04-11T14:46:16.069Z,6.27
2023-04-11T14:48:43.107Z,5.67
2023-04-11T14:51:11.169Z,7.50
2023-04-11T14:53:38.390Z,5.40
2023-04-11T14:56:06.571Z,6.70
2023-04-11T14:58:34.278Z,7.87
2023-04-11T15:01:01.443Z,6.10
2023-04-11T15:03:31.546Z,5.40
2023-04-11T15:05:58.736Z,5.83
2023-04-11T15:08:25.705Z,5.27
2023-04-11T15:10:54.494Z,7.30
2023-04-11T15:13:27.111Z,6.20
2023-04-11T15:15:54.388Z,5.77
2023-04-11T15:18:24.259Z,6.50
2023-04-11T15:20:52.632Z,5.60
2023-04-11T15:23:20.559Z,5.60
2023-04-11T15:25:54.666Z,6.13
2023-04-11T15:28:22.407Z,8.43
2023-04-11T15:30:52.155Z,7.60
2023-04-11T15:33:21.014Z,6.43
2023-04-11T15:35:48.255Z,7.10
2023-04-11T15:38:16.258Z,6.87
2023-04-11T15:40:43.517Z,6.70
2023-04-11T15:43:10.735Z,5.93
2023-04-11T15:45:39.645Z,6.73
2023-04-11T15:48:07.016Z,6.33
2023-04-11T15:50:34.217Z,7.60
2023-04-11T15:53:01.310Z,8.00
2023-04-11T15:55:28.803Z,6.87
2023-04-11T15:57:56.695Z,6.30
2023-04-11T16:00:23.808Z,7.37
2023-04-11T16:02:51.079Z,6.90
2023-04-11T16:05:20.945Z,6.50
2023-04-11T16:07:48.261Z,7.57
2023-04-11T16:10:17.904Z,5.77
2023-04-11T16:12:46.004Z,6.83
2023-04-11T16:15:13.116Z,7.53
2023-04-11T16:17:40.624Z,7.00
2023-04-11T16:20:18.326Z,7.03
2023-04-11T16:22:46.814Z,8.40
2023-04-11T16:25:23.425Z,7.33
2023-04-11T16:27:51.610Z,9.20
2023-04-11T16:30:18.809Z,8.43
2023-04-11T16:32:45.989Z,7.87
2023-04-11T16:35:12.919Z,7.80
2023-04-11T16:37:39.918Z,7.47
2023-04-11T16:40:15.166Z,7.73
2023-04-11T16:42:42.142Z,7.57
2023-04-11T16:45:12.351Z,7.53
2023-04-11T16:47:39.458Z,6.53
2023-04-11T16:50:07.220Z,7.73
2023-04-11T16:52:34.152Z,9.10
2023-04-11T16:55:01.130Z,7.47
2023-04-11T16:57:28.058Z,8.53
2023-04-11T16:59:54.926Z,9.67
2023-04-11T17:02:22.171Z,7.60
2023-04-11T17:04:49.258Z,8.47
2023-04-11T17:07:16.459Z,10.80
2023-04-11T17:09:43.432Z,8.20
2023-04-11T17:12:10.569Z,8.00
2023-04-11T17:14:37.636Z,10.83
2023-04-11T17:17:04.700Z,9.07
2023-04-11T17:19:31.746Z,9.33
2023-04-11T17:21:58.794Z,9.50
2023-04-11T17:24:25.882Z,9.10
2023-04-11T17:26:53.245Z,7.77
2023-04-11T17:29:20.414Z,8.50
2023-04-11T17:31:47.521Z,9.23
2023-04-11T17:34:14.452Z,9.33
2023-04-11T17:36:43.076Z,8.63
2023-04-11T17:39:17.137Z,8.40
2023-04-11T17:41:47.323Z,8.67
2023-04-11T17:44:14.264Z,8.40
2023-04-11T17:46:41.359Z,12.03
2023-04-11T17:49:08.496Z,9.93
2023-04-11T17:51:38.882Z,9.13
2023-04-11T17:54:08.669Z,7.70
2023-04-11T17:56:35.693Z,8.53
2023-04-11T17:59:05.260Z,8.90
2023-04-11T18:01:32.807Z,8.57
2023-04-11T18:04:01.589Z,9.13
2023-04-11T18:06:29.705Z,12.93
2023-04-11T18:08:56.815Z,8.03
2023-04-11T18:11:23.985Z,7.83
2023-04-11T18:13:51.053Z,7.50
2023-04-11T18:16:18.542Z,8.70
2023-04-11T18:18:47.147Z,8.60
2023-04-11T18:21:15.976Z,8.93
2023-04-11T18:23:43.050Z,8.00
2023-04-11T18:26:10.252Z,6.73
2023-04-11T18:28:37.099Z,9.20
2023-04-11T18:31:05.130Z,6.97
2023-04-11T18:33:32.985Z,7.57
2023-04-11T18:36:01.823Z,8.47
2023-04-11T18:38:30.465Z,8.30
2023-04-11T18:40:59.822Z,10.37
2023-04-11T18:43:29.418Z,7.87
2023-04-11T18:45:56.352Z,7.27
2023-04-11T18:48:23.377Z,6.73
2023-04-11T18:51:00.823Z,6.30
2023-04-11T18:53:29.998Z,6.60
2023-04-11T18:55:57.915Z,6.67
2023-04-11T18:58:26.381Z,6.40
2023-04-11T19:00:54.269Z,6.80
2023-04-11T19:03:22.625Z,6.20
2023-04-11T19:05:50.552Z,6.93
2023-04-11T19:08:17.735Z,8.17
2023-04-11T19:10:44.648Z,8.00
2023-04-11T19:13:38.637Z,6.00
2023-04-11T19:16:06.140Z,6.57
2023-04-11T19:18:33.215Z,6.50
2023-04-11T19:21:00.171Z,5.93
2023-04-11T19:23:27.103Z,7.07
2023-04-11T19:25:54.903Z,6.63
2023-04-11T19:28:21.894Z,6.70
2023-04-11T19:30:48.837Z,5.80
2023-04-11T19:33:16.210Z,6.63
2023-04-11T19:35:43.215Z,5.57
2023-04-11T19:38:10.279Z,6.37
2023-04-11T19:40:37.519Z,7.03
2023-04-11T19:43:04.411Z,6.03
2023-04-11T19:45:32.431Z,5.30
2023-04-11T19:48:00.430Z,6.80
2023-04-11T19:50:27.849Z,7.00
2023-04-11T19:52:58.924Z,6.40
2023-04-11T19:55:27.540Z,6.33
2023-04-11T19:57:54.677Z,7.07
2023-04-11T20:00:21.610Z,6.60
2023-04-11T20:02:49.512Z,7.27
2023-04-11T20:05:22.226Z,7.83
2023-04-11T20:07:49.430Z,7.67
2023-04-11T20:10:17.432Z,7.40
2023-04-11T20:12:44.689Z,6.93
2023-04-11T20:15:11.898Z,7.57
2023-04-11T20:17:39.096Z,8.13
2023-04-11T20:20:08.569Z,7.70
2023-04-11T20:22:38.299Z,6.80
2023-04-11T20:25:11.935Z,6.53
2023-04-11T20:27:39.712Z,6.50
2023-04-11T20:30:10.441Z,7.43
2023-04-11T20:32:37.951Z,6.40
2023-04-11T20:35:05.509Z,7.47
2023-04-11T20:37:34.451Z,6.40
2023-04-11T20:40:02.634Z,7.80
2023-04-11T20:42:31.690Z,6.93
2023-04-11T20:45:06.238Z,7.73
2023-04-11T20:47:37.617Z,7.30
2023-04-11T20:50:07.614Z,7.13
2023-04-11T20:52:34.915Z,7.33
2023-04-11T20:55:02.729Z,8.40
2023-04-11T20:57:33.145Z,7.63
2023-04-11T21:00:01.158Z,7.90
2023-04-11T21:02:28.562Z,7.50
2023-04-11T21:04:55.719Z,7.33
2023-04-11T21:07:22.896Z,7.37
2023-04-11T21:09:50.416Z,7.73
2023-04-11T21:12:17.438Z,8.17
2023-04-11T21:14:44.309Z,8.13
2023-04-11T21:17:11.463Z,9.40
2023-04-11T21:19:39.073Z,7.27
2023-04-11T21:22:06.453Z,7.30
2023-04-11T21:24:34.829Z,7.80
2023-04-11T21:27:02.684Z,7.67
2023-04-11T21:29:29.773Z,7.03
2023-04-11T21:31:56.653Z,7.30
2023-04-11T21:34:24.208Z,7.77
2023-04-11T21:36:51.304Z,7.23
2023-04-11T21:39:19.641Z,6.67
2023-04-11T21:41:46.680Z,7.13
2023-04-11T21:44:13.576Z,6.80
2023-04-11T21:46:41.653Z,7.13
2023-04-11T21:49:08.615Z,6.90
2023-04-11T21:51:35.524Z,7.53
2023-04-11T21:54:04.465Z,6.83
2023-04-11T21:56:31.426Z,6.83
2023-04-11T21:58:58.519Z,7.80
2023-04-11T22:01:25.604Z,7.20
2023-04-11T22:03:52.846Z,6.90
2023-04-11T22:06:20.072Z,7.07
2023-04-11T22:08:50.581Z,6.80
2023-04-11T22:11:18.307Z,8.03
2023-04-11T22:13:46.578Z,7.83
2023-04-11T22:16:14.458Z,7.10
2023-04-11T22:18:47.482Z,6.97
2023-04-11T22:21:21.116Z,7.47
2023-04-11T22:23:54.497Z,7.67
2023-04-11T22:26:29.471Z,6.83
2023-04-11T22:29:02.025Z,6.43
2023-04-11T22:31:30.502Z,6.93
2023-04-11T22:33:58.189Z,7.57
2023-04-11T22:36:25.294Z,7.00
2023-04-11T22:38:52.213Z,7.10
2023-04-11T22:41:19.195Z,7.07
2023-04-11T22:43:46.180Z,7.63
2023-04-11T22:46:13.355Z,7.07
2023-04-11T22:48:42.031Z,6.77
2023-04-11T22:51:09.072Z,7.30
2023-04-11T22:53:42.328Z,8.03
2023-04-11T22:56:11.154Z,7.00
2023-04-11T22:58:38.049Z,7.63
2023-04-11T23:01:05.320Z,6.37
2023-04-11T23:03:32.356Z,7.37
2023-04-11T23:05:59.333Z,6.63
2023-04-11T23:08:27.124Z,7.10
2023-04-11T23:10:54.209Z,6.83
2023-04-11T23:13:21.232Z,6.87
2023-04-11T23:15:48.476Z,6.43
2023-04-11T23:18:15.553Z,6.13
2023-04-11T23:20:42.580Z,6.70
2023-04-11T23:23:09.436Z,6.67
2023-04-11T23:25:40.793Z,7.07
2023-04-11T23:28:08.173Z,6.67
2023-04-11T23:30:38.939Z,6.90
2023-04-11T23:33:08.620Z,7.37
2023-04-11T23:35:36.106Z,6.77
2023-04-11T23:38:03.524Z,6.93
2023-04-11T23:40:31.918Z,7.33
2023-04-11T23:42:58.832Z,6.13
2023-04-11T23:45:25.849Z,7.63
2023-04-11T23:47:53.229Z,6.80
2023-04-11T23:50:20.554Z,6.87
2023-04-11T23:52:47.710Z,6.30
2023-04-11T23:55:15.576Z,6.67
2023-04-11T23:57:42.598Z,6.03
